Time;durP1;ratioP1;P1;durP2;ratioP2;P2;SDS_P1;SDS_P2;PMS_P1;PMS_P2;Temp;Humidity;BMP_temperature;BMP_pressure;BME280_temperature;BME280_humidity;BME280_pressure;Samples;Min_cycle;Max_cycle;Signal;HPM_P1;HPM_P2
2022/12/18 00:00:44;;;;;;;10.90;3.55;;;;;;;-1.06;61.22;101021.63;5069501;28;20040;-89
2022/12/18 00:03:10;;;;;;;7.85;3.38;;;;;;;-0.94;61.23;101024.88;5069599;28;20052;-89
2022/12/18 00:05:36;;;;;;;7.55;3.33;;;;;;;-0.85;61.36;101031.94;5070238;28;20470;-89
2022/12/18 00:08:01;;;;;;;9.15;3.45;;;;;;;-0.73;60.78;101035.19;5069306;28;20114;-88
2022/12/18 00:10:28;;;;;;;6.53;3.35;;;;;;;-0.77;60.93;101033.00;5069259;28;20032;-90
2022/12/18 00:12:53;;;;;;;8.25;3.67;;;;;;;-0.95;60.96;101028.53;5069773;28;20520;-88
2022/12/18 00:15:19;;;;;;;7.27;3.50;;;;;;;-0.86;60.89;101034.78;5069031;28;20037;-89
2022/12/18 00:17:44;;;;;;;7.70;4.82;;;;;;;-1.06;61.43;101041.16;5069994;28;20611;-90
2022/12/18 00:20:09;;;;;;;7.55;4.43;;;;;;;-0.90;60.73;101049.50;5069351;28;20029;-88
2022/12/18 00:22:35;;;;;;;10.45;4.50;;;;;;;-0.79;60.51;101056.44;5068917;28;20198;-89
2022/12/18 00:25:00;;;;;;;9.73;4.38;;;;;;;-0.65;60.74;101057.69;5069358;28;20036;-88
2022/12/18 00:27:25;;;;;;;9.73;4.78;;;;;;;-0.70;60.29;101063.53;5069500;28;20044;-90
2022/12/18 00:29:50;;;;;;;10.90;5.10;;;;;;;-0.62;60.33;101062.72;5069174;28;20058;-88
2022/12/18 00:32:16;;;;;;;6.80;3.63;;;;;;;-0.70;59.59;101055.47;5070186;28;20269;-89
2022/12/18 00:34:41;;;;;;;7.00;3.50;;;;;;;-0.62;59.15;101046.66;5069428;28;20029;-87
2022/12/18 00:37:06;;;;;;;9.43;3.20;;;;;;;-0.73;59.69;101045.06;5069857;28;20021;-89
2022/12/18 00:39:32;;;;;;;8.30;3.67;;;;;;;-0.68;59.49;101037.41;5070199;28;20029;-89
2022/12/18 00:44:41;;;;;;;8.35;3.80;;;;;;;-0.70;58.98;101050.13;5069803;28;20554;-88
2022/12/18 00:47:06;;;;;;;8.87;4.30;;;;;;;-0.66;59.16;101040.78;5069595;28;20048;-89
2022/12/18 00:49:32;;;;;;;9.20;4.00;;;;;;;-0.69;58.74;101041.06;5069775;28;20718;-88
2022/12/18 00:51:57;;;;;;;5.20;2.97;;;;;;;-0.74;59.28;101049.59;5069505;28;20029;-88
2022/12/18 00:54:22;;;;;;;9.75;3.80;;;;;;;-0.74;59.04;101033.53;5069323;28;20028;-88
2022/12/18 00:56:47;;;;;;;8.32;3.22;;;;;;;-0.81;58.96;101045.84;5068840;28;20028;-89
2022/12/18 00:59:13;;;;;;;7.53;3.70;;;;;;;-0.66;59.00;101038.09;5069181;28;20037;-89
2022/12/18 01:01:38;;;;;;;8.70;3.50;;;;;;;-0.60;58.96;101037.47;5069317;28;20258;-89
2022/12/18 01:04:03;;;;;;;7.82;3.30;;;;;;;-0.62;59.18;101042.13;5068817;28;20359;-89
2022/12/18 01:06:29;;;;;;;12.20;4.10;;;;;;;-0.63;59.11;101036.94;5069426;28;20056;-89
2022/12/18 01:08:55;;;;;;;10.52;4.47;;;;;;;-0.54;59.63;101033.28;5068733;28;20066;-90
2022/12/18 01:11:21;;;;;;;8.73;4.13;;;;;;;-0.45;59.27;101028.84;5069001;28;20037;-84
2022/12/18 01:13:46;;;;;;;8.65;3.85;;;;;;;-0.45;59.12;101044.06;5069621;28;20052;-89
2022/12/18 01:16:13;;;;;;;11.10;4.75;;;;;;;-0.43;59.56;101042.91;5068926;28;20047;-88
2022/12/18 01:18:38;;;;;;;6.30;3.20;;;;;;;-0.43;59.27;101042.91;5067761;28;20040;-88
2022/12/18 01:21:15;;;;;;;7.72;3.20;;;;;;;-0.42;59.16;101041.91;5069478;28;20028;-88
2022/12/18 01:23:44;;;;;;;6.57;3.08;;;;;;;-0.34;59.35;101043.78;5073005;28;20048;-89
2022/12/18 01:26:15;;;;;;;7.53;2.83;;;;;;;-0.33;59.55;101044.63;5071262;28;20040;-89
2022/12/18 01:28:41;;;;;;;6.20;3.78;;;;;;;-0.43;59.69;101044.75;5072213;28;20036;-90
2022/12/18 01:31:27;;;;;;;8.27;3.75;;;;;;;-0.43;59.59;101050.94;5072535;28;20029;-88
2022/12/18 01:33:53;;;;;;;7.40;4.13;;;;;;;-0.50;60.01;101061.47;5072327;28;20040;-88
2022/12/18 01:36:28;;;;;;;8.20;3.75;;;;;;;-0.52;60.31;101067.97;5072058;28;20454;-87
2022/12/18 01:38:55;;;;;;;8.15;4.07;;;;;;;-0.42;60.54;101063.34;5071757;28;20047;-90
2022/12/18 01:41:24;;;;;;;6.15;3.40;;;;;;;-0.40;60.16;101055.97;5072303;28;20028;-86
2022/12/18 01:43:54;;;;;;;6.78;3.67;;;;;;;-0.60;60.14;101058.91;5072648;28;20041;-89
2022/12/18 01:46:21;;;;;;;6.05;3.03;;;;;;;-0.71;60.87;101053.78;5072102;28;20041;-88
2022/12/18 01:48:49;;;;;;;9.90;3.97;;;;;;;-0.57;60.93;101048.84;5072181;28;20093;-90
2022/12/18 01:51:15;;;;;;;5.95;3.47;;;;;;;-0.49;60.27;101040.88;5072266;28;20643;-89
2022/12/18 01:53:42;;;;;;;7.97;4.03;;;;;;;-0.54;60.78;101041.34;5071624;28;20127;-89
2022/12/18 01:56:12;;;;;;;7.07;3.78;;;;;;;-0.75;60.80;101033.66;5071448;28;20107;-88
2022/12/18 01:58:48;;;;;;;10.15;4.43;;;;;;;-1.06;61.16;101030.47;5071744;28;20056;-90
2022/12/18 02:01:13;;;;;;;5.82;3.38;;;;;;;-0.74;61.48;101032.69;5072180;28;20141;-90
2022/12/18 02:03:42;;;;;;;8.88;4.20;;;;;;;-0.92;61.60;101022.88;5071656;28;20041;-88
2022/12/18 02:06:23;;;;;;;6.70;3.97;;;;;;;-0.95;62.13;101017.81;5071942;28;20058;-90
2022/12/18 02:09:07;;;;;;;6.85;2.78;;;;;;;-0.93;62.26;101029.22;5071862;28;20044;-90
2022/12/18 02:11:41;;;;;;;7.03;3.80;;;;;;;-0.91;61.93;101023.69;5071307;28;20044;-91
2022/12/18 02:14:18;;;;;;;8.55;4.07;;;;;;;-0.97;61.91;101031.38;5071608;28;20316;-88
2022/12/18 02:17:02;;;;;;;6.90;2.80;;;;;;;-1.13;62.37;101042.81;5070940;28;20177;-90
2022/12/18 02:19:44;;;;;;;9.38;5.07;;;;;;;-0.88;61.95;101043.00;5071390;28;20039;-89
2022/12/18 02:22:39;;;;;;;9.18;4.05;;;;;;;-0.72;61.93;101044.09;5071687;28;20040;-90
2022/12/18 02:25:23;;;;;;;8.18;3.47;;;;;;;-0.77;62.19;101033.84;5069291;28;20040;-90
2022/12/18 02:27:50;;;;;;;7.53;3.63;;;;;;;-0.92;62.32;101030.91;5071375;28;20489;-88
2022/12/18 02:30:17;;;;;;;5.95;3.47;;;;;;;-0.90;62.26;101028.06;5071733;28;20032;-89
2022/12/18 02:32:49;;;;;;;11.35;4.82;;;;;;;-1.12;62.82;101012.34;5071383;28;20311;-90
2022/12/18 02:35:21;;;;;;;11.55;4.85;;;;;;;-1.00;62.93;101015.63;5069917;28;20044;-92
2022/12/18 02:37:47;;;;;;;12.95;4.63;;;;;;;-1.13;62.67;101016.03;5071345;28;20400;-89
2022/12/18 02:40:15;;;;;;;9.60;4.22;;;;;;;-0.94;62.52;101016.84;5070724;28;20032;-89
2022/12/18 02:42:40;;;;;;;8.63;3.67;;;;;;;-1.06;62.85;101002.88;5071520;28;20045;-90
2022/12/18 02:45:06;;;;;;;11.70;4.45;;;;;;;-1.11;62.83;100997.97;5070427;28;20414;-88
2022/12/18 02:47:36;;;;;;;6.53;3.20;;;;;;;-1.17;62.75;101006.63;5070822;28;20055;-89
2022/12/18 02:50:26;;;;;;;8.55;4.07;;;;;;;-0.96;62.60;101014.31;5071370;28;20020;-89
2022/12/18 02:53:17;;;;;;;9.35;3.22;;;;;;;-1.07;63.22;101023.44;5071412;28;20095;-89
2022/12/18 02:55:58;;;;;;;7.72;3.63;;;;;;;-1.01;62.72;101026.47;5070923;28;20039;-91
2022/12/18 02:58:47;;;;;;;5.88;3.05;;;;;;;-1.11;63.10;101019.41;5070547;28;20040;-87
2022/12/18 03:01:26;;;;;;;6.82;4.13;;;;;;;-1.20;63.09;101010.47;5070752;28;20032;-89
2022/12/18 03:03:57;;;;;;;9.38;3.85;;;;;;;-1.01;62.89;101021.97;5070484;28;20044;-88
2022/12/18 03:06:25;;;;;;;11.27;3.78;;;;;;;-1.32;62.84;101009.88;5069278;28;20119;-89
2022/12/18 03:08:57;;;;;;;8.15;3.28;;;;;;;-1.08;62.92;101013.72;5070404;28;20495;-90
2022/12/18 03:12:22;;;;;;;7.10;4.22;;;;;;;-0.99;63.09;101013.78;5070496;28;20168;-90
2022/12/18 03:14:11;;;;;;;7.22;3.95;;;;;;;-1.01;62.94;101013.94;5069641;28;20132;-87
2022/12/18 03:16:37;;;;;;;7.70;3.65;;;;;;;-0.87;62.32;101011.66;5070698;28;20042;-88
2022/12/18 03:19:09;;;;;;;7.25;4.13;;;;;;;-1.06;62.56;101013.59;5070471;28;20059;-87
2022/12/18 03:21:42;;;;;;;7.82;3.20;;;;;;;-1.06;62.80;101008.22;5071011;28;20020;-88
2022/12/18 03:24:09;;;;;;;10.63;3.75;;;;;;;-0.96;62.87;101005.44;5069299;28;20520;-89
2022/12/18 03:26:37;;;;;;;6.28;3.25;;;;;;;-0.97;62.61;101017.13;5070987;28;20042;-89
2022/12/18 03:29:43;;;;;;;7.60;3.20;;;;;;;-0.94;62.68;101008.81;5070680;28;20048;-88
2022/12/18 03:32:12;;;;;;;6.43;3.15;;;;;;;-0.91;62.58;101005.81;5069045;28;20040;-90
2022/12/18 03:34:41;;;;;;;8.20;3.65;;;;;;;-0.80;62.21;101006.53;5069774;28;20235;-88
2022/12/18 03:37:07;;;;;;;11.13;4.55;;;;;;;-0.72;61.94;101002.06;5070072;28;20082;-89
2022/12/18 03:39:33;;;;;;;7.00;3.42;;;;;;;-0.75;62.41;100998.84;5070118;28;20040;-89
2022/12/18 03:42:10;;;;;;;6.28;4.15;;;;;;;-0.79;62.28;100990.28;5069130;28;20111;-86
2022/12/18 03:45:02;;;;;;;10.73;4.10;;;;;;;-0.74;61.97;100996.03;5068405;28;20044;-86
2022/12/18 03:47:35;;;;;;;7.20;2.75;;;;;;;-0.80;62.17;100985.94;5069380;28;20055;-88
2022/12/18 03:50:13;;;;;;;6.47;2.72;;;;;;;-0.78;62.30;100996.50;5069192;28;20029;-88
2022/12/18 03:52:51;;;;;;;7.18;3.50;;;;;;;-0.83;61.86;101005.84;5069027;28;20158;-88
2022/12/18 03:55:19;;;;;;;5.25;2.38;;;;;;;-0.83;62.27;101008.53;5068655;28;20610;-88
2022/12/18 03:57:46;;;;;;;6.60;3.28;;;;;;;-0.77;61.99;101000.88;5069823;28;20031;-88
2022/12/18 04:00:15;;;;;;;8.00;3.28;;;;;;;-0.72;61.77;100996.72;5068643;28;20038;-89
2022/12/18 04:02:54;;;;;;;5.40;2.70;;;;;;;-0.86;61.56;101002.66;5068686;28;20067;-87
2022/12/18 04:05:20;;;;;;;5.88;2.75;;;;;;;-0.64;61.69;101003.09;5068551;28;20056;-88
2022/12/18 04:07:48;;;;;;;9.02;3.47;;;;;;;-0.67;61.34;100995.41;5068876;28;20637;-88
2022/12/18 04:10:15;;;;;;;6.85;2.20;;;;;;;-0.59;60.88;100993.56;5068929;28;20365;-89
2022/12/18 04:12:41;;;;;;;7.40;3.53;;;;;;;-0.49;60.66;100998.00;5068496;28;20029;-87
2022/12/18 04:15:08;;;;;;;6.93;2.83;;;;;;;-0.63;60.55;101000.25;5068396;28;20032;-88
2022/12/18 04:17:33;;;;;;;7.72;3.78;;;;;;;-0.63;60.62;100997.56;5069132;28;20028;-88
2022/12/18 04:19:58;;;;;;;6.32;3.25;;;;;;;-0.65;61.53;100999.56;5069016;28;20037;-89
2022/12/18 04:22:23;;;;;;;7.75;3.15;;;;;;;-0.64;61.21;100992.38;5068733;28;20068;-90
2022/12/18 04:24:49;;;;;;;8.73;3.43;;;;;;;-0.64;60.86;101003.94;5069014;28;20095;-89
2022/12/18 04:27:14;;;;;;;6.10;2.72;;;;;;;-0.73;61.30;101002.22;5069573;28;20269;-88
2022/12/18 04:29:39;;;;;;;5.25;2.53;;;;;;;-0.67;61.32;101006.94;5069674;28;20020;-90
2022/12/18 04:32:04;;;;;;;5.25;2.08;;;;;;;-0.55;60.56;101004.00;5068775;28;20024;-87
2022/12/18 04:34:30;;;;;;;4.28;2.58;;;;;;;-0.65;60.70;100996.06;5067217;28;20040;-88
2022/12/18 04:36:55;;;;;;;5.95;1.83;;;;;;;-0.54;60.51;101005.66;5068973;28;20622;-86
2022/12/18 04:39:21;;;;;;;2.58;1.70;;;;;;;-0.52;59.89;100998.28;5068894;28;20020;-89
2022/12/18 04:41:46;;;;;;;6.82;3.35;;;;;;;-0.73;60.90;100999.53;5069309;28;20025;-90
2022/12/18 04:44:11;;;;;;;6.65;2.63;;;;;;;-0.74;60.66;101000.53;5069026;28;20374;-90
2022/12/18 04:46:36;;;;;;;5.35;2.95;;;;;;;-0.62;60.06;100993.91;5069112;28;20054;-88
2022/12/18 04:49:02;;;;;;;5.00;2.03;;;;;;;-0.50;59.90;101001.66;5069964;28;20028;-88
2022/12/18 04:51:27;;;;;;;7.63;2.15;;;;;;;-0.42;59.62;100998.16;5068519;28;20033;-87
2022/12/18 04:53:53;;;;;;;4.33;1.57;;;;;;;-0.40;59.05;100996.16;5069261;28;20093;-89
2022/12/18 04:56:18;;;;;;;4.13;2.45;;;;;;;-0.38;58.90;100995.00;5068711;28;20272;-88
2022/12/18 04:58:44;;;;;;;5.55;2.50;;;;;;;-0.46;59.16;100992.28;5072406;28;20025;-89
2022/12/18 05:01:11;;;;;;;4.50;2.13;;;;;;;-0.55;59.67;100988.72;5072583;28;20038;-88
2022/12/18 05:03:37;;;;;;;4.93;2.03;;;;;;;-0.51;59.09;100998.13;5072425;28;20035;-87
2022/12/18 05:06:03;;;;;;;7.13;3.40;;;;;;;-0.53;58.71;100986.72;5072142;28;20036;-87
2022/12/18 05:08:29;;;;;;;4.80;1.88;;;;;;;-0.44;58.75;100990.28;5072034;28;20028;-89
2022/12/18 05:11:12;;;;;;;8.05;3.03;;;;;;;-0.36;58.51;100987.66;5072819;28;20038;-90
2022/12/18 05:13:37;;;;;;;6.57;3.28;;;;;;;-0.38;57.81;100978.94;5071498;28;20044;-89
2022/12/18 05:16:04;;;;;;;7.68;3.65;;;;;;;-0.29;57.88;100977.13;5071474;28;20040;-88
2022/12/18 05:18:29;;;;;;;6.05;3.05;;;;;;;-0.18;57.46;100973.28;5071428;28;20036;-89
2022/12/18 05:20:55;;;;;;;6.30;2.28;;;;;;;-0.14;57.22;100973.78;5073017;28;20347;-92
2022/12/18 05:23:22;;;;;;;6.13;2.85;;;;;;;-0.10;57.27;100968.97;5071833;28;20158;-89
2022/12/18 05:25:59;;;;;;;5.15;2.47;;;;;;;-0.20;56.98;100969.94;5071397;28;20260;-88
2022/12/18 05:28:26;;;;;;;5.25;2.63;;;;;;;-0.13;56.90;100965.63;5072016;28;20035;-90
2022/12/18 05:30:53;;;;;;;6.22;2.15;;;;;;;-0.15;56.58;100956.91;5072121;28;20485;-91
2022/12/18 05:33:20;;;;;;;4.20;1.83;;;;;;;-0.19;57.00;100955.53;5072016;28;20041;-88
2022/12/18 05:35:51;;;;;;;7.90;3.42;;;;;;;-0.33;56.95;100953.50;5071496;28;20036;-87
2022/12/18 05:38:17;;;;;;;7.45;2.72;;;;;;;-0.32;56.95;100947.97;5070654;28;20201;-88
2022/12/18 05:40:43;;;;;;;8.48;2.72;;;;;;;-0.44;56.85;100952.78;5071481;28;20040;-89
2022/12/18 05:43:08;;;;;;;2.13;1.23;;;;;;;-0.50;56.87;100958.78;5071396;28;20096;-90
2022/12/18 05:45:37;;;;;;;7.07;2.42;;;;;;;-0.34;56.49;100968.72;5071274;28;20187;-89
2022/12/18 05:48:02;;;;;;;6.22;2.40;;;;;;;-0.26;55.71;100965.22;5071503;28;20057;-89
2022/12/18 05:50:27;;;;;;;5.78;2.55;;;;;;;-0.16;55.74;100960.56;5071593;28;20029;-88
2022/12/18 05:52:53;;;;;;;5.13;2.47;;;;;;;-0.16;55.83;100976.66;5071685;28;20029;-89
2022/12/18 05:55:18;;;;;;;8.15;2.92;;;;;;;-0.21;56.09;100981.69;5071172;28;20156;-90
2022/12/18 05:57:43;;;;;;;4.33;2.50;;;;;;;-0.18;55.33;100986.69;5071762;28;20067;-88
2022/12/18 06:00:09;;;;;;;6.57;2.67;;;;;;;-0.15;55.42;100982.84;5071130;28;20264;-89
2022/12/18 06:02:34;;;;;;;3.72;2.00;;;;;;;-0.17;54.83;100990.22;5071413;28;20721;-88
2022/12/18 06:05:00;;;;;;;6.33;2.03;;;;;;;-0.28;55.44;100980.63;5070767;28;20328;-87
2022/12/18 06:07:25;;;;;;;2.90;1.60;;;;;;;-0.25;55.60;100988.34;5070522;28;20285;-88
2022/12/18 06:09:50;;;;;;;7.13;2.80;;;;;;;-0.33;56.55;100991.84;5070212;28;20742;-87
2022/12/18 06:12:15;;;;;;;4.67;2.27;;;;;;;-0.32;55.66;100998.88;5071531;28;20260;-88
2022/12/18 06:14:41;;;;;;;5.35;2.65;;;;;;;-0.34;55.83;101005.41;5071032;28;20257;-86
2022/12/18 06:17:06;;;;;;;4.18;2.08;;;;;;;-0.48;56.50;101013.06;5071384;28;20024;-88
2022/12/18 06:19:31;;;;;;;4.45;1.65;;;;;;;-0.67;57.15;101014.97;5071534;28;20075;-88
2022/12/18 06:21:58;;;;;;;6.07;3.07;;;;;;;-0.75;56.68;101014.91;5071056;28;20032;-88
2022/12/18 06:24:24;;;;;;;7.35;3.15;;;;;;;-0.90;57.63;101028.91;5070861;28;20730;-87
2022/12/18 06:26:49;;;;;;;6.68;3.22;;;;;;;-0.94;57.47;101030.22;5071816;28;20157;-89
2022/12/18 06:29:14;;;;;;;5.25;2.22;;;;;;;-0.92;57.85;101036.28;5071317;28;20043;-88
2022/12/18 06:31:39;;;;;;;6.10;2.80;;;;;;;-0.99;58.19;101035.19;5068635;28;20089;-89
2022/12/18 06:34:05;;;;;;;6.47;3.28;;;;;;;-0.92;57.94;101028.22;5069010;28;20500;-86
2022/12/18 06:36:31;;;;;;;6.35;2.63;;;;;;;-0.82;57.19;101030.81;5070815;28;20055;-89
2022/12/18 06:38:57;;;;;;;7.35;3.17;;;;;;;-0.53;56.03;101034.16;5071037;28;20036;-87
2022/12/18 06:41:22;;;;;;;5.80;3.40;;;;;;;-0.43;55.51;101034.03;5070294;28;20032;-88
2022/12/18 06:43:47;;;;;;;6.78;4.30;;;;;;;-0.41;54.51;101026.66;5068052;28;20477;-87
2022/12/18 06:46:13;;;;;;;6.90;3.05;;;;;;;-0.43;54.19;101024.16;5069186;28;20056;-87
2022/12/18 06:48:38;;;;;;;7.07;2.92;;;;;;;-0.56;55.39;101021.06;5067294;28;20265;-87
2022/12/18 06:51:04;;;;;;;6.28;3.45;;;;;;;-0.77;56.28;101022.31;5068597;28;20052;-88
2022/12/18 06:53:29;;;;;;;8.65;3.45;;;;;;;-0.66;55.56;101021.16;5068006;28;20500;-87
2022/12/18 06:56:06;;;;;;;4.47;2.58;;;;;;;-0.59;54.42;101008.84;5068095;28;20043;-87
2022/12/18 06:58:32;;;;;;;6.10;3.22;;;;;;;-0.62;55.37;101001.94;5068983;28;20037;-89
2022/12/18 07:01:01;;;;;;;7.00;3.13;;;;;;;-0.57;53.81;100995.28;5067817;28;20028;-87
2022/12/18 07:03:26;;;;;;;9.18;3.85;;;;;;;-0.53;54.02;101004.66;5068109;28;20443;-87
2022/12/18 07:05:52;;;;;;;5.07;2.78;;;;;;;-0.54;53.59;100994.94;5070362;28;20048;-90
2022/12/18 07:08:17;;;;;;;7.30;3.42;;;;;;;-0.63;53.14;100986.03;5070063;28;20032;-87
2022/12/18 07:10:43;;;;;;;6.63;3.08;;;;;;;-0.66;53.49;100987.19;5069538;28;20117;-88
2022/12/18 07:13:09;;;;;;;6.65;3.13;;;;;;;-0.59;53.63;100977.50;5067151;28;20064;-87
2022/12/18 07:15:34;;;;;;;7.00;3.17;;;;;;;-0.67;52.66;100979.31;5066399;28;20185;-89
2022/12/18 07:17:59;;;;;;;4.43;2.38;;;;;;;-0.65;53.25;100983.50;5068013;28;20110;-88
2022/12/18 07:20:25;;;;;;;19.07;2.67;;;;;;;-0.61;53.09;100968.78;5068521;28;20542;-88
2022/12/18 07:22:50;;;;;;;8.53;3.73;;;;;;;-0.71;53.13;100968.06;5067994;28;20257;-87
2022/12/18 07:25:15;;;;;;;7.80;3.17;;;;;;;-0.62;52.50;100967.13;5066117;28;20254;-88
2022/12/18 07:27:40;;;;;;;9.40;2.97;;;;;;;-0.50;52.00;100965.00;5068826;28;20281;-86
2022/12/18 07:30:06;;;;;;;7.20;3.50;;;;;;;-0.56;52.17;100965.63;5069402;28;20029;-88
2022/12/18 07:32:31;;;;;;;4.90;2.47;;;;;;;-0.45;52.61;100963.66;5069526;28;20056;-87
2022/12/18 07:34:57;;;;;;;6.35;3.83;;;;;;;-0.38;52.20;100962.84;5068624;28;20047;-86
2022/12/18 07:37:22;;;;;;;5.68;3.17;;;;;;;-0.24;51.69;100963.22;5068751;28;20028;-87
2022/12/18 07:39:47;;;;;;;7.60;2.40;;;;;;;-0.18;51.15;100949.16;5068846;28;20040;-89
2022/12/18 07:42:30;;;;;;;5.50;2.70;;;;;;;-0.12;51.11;100953.03;5067729;28;20257;-87
2022/12/18 07:44:56;;;;;;;5.53;2.65;;;;;;;-0.02;50.70;100939.50;5067802;28;20265;-89
2022/12/18 07:47:22;;;;;;;6.13;2.58;;;;;;;-0.14;50.53;100947.84;5067996;28;20174;-88
2022/12/18 07:49:48;;;;;;;17.45;3.58;;;;;;;-0.20;50.37;100945.81;5067642;28;20044;-88
2022/12/18 07:52:14;;;;;;;37.72;6.50;;;;;;;-0.16;50.17;100947.16;5068917;28;20038;-86
2022/12/18 07:54:40;;;;;;;4.80;1.90;;;;;;;-0.34;50.44;100943.75;5069143;28;20394;-86
2022/12/18 07:57:05;;;;;;;9.75;2.97;;;;;;;-0.18;50.40;100945.63;5069395;28;20028;-86
2022/12/18 07:59:30;;;;;;;6.88;3.35;;;;;;;-0.09;50.53;100949.19;5069465;28;20046;-87
2022/12/18 08:01:56;;;;;;;5.80;2.87;;;;;;;-0.05;49.73;100954.06;5069687;28;20037;-87
2022/12/18 08:04:21;;;;;;;6.80;3.25;;;;;;;0.08;49.55;100961.59;5069125;28;20265;-84
2022/12/18 08:06:46;;;;;;;8.48;5.03;;;;;;;0.28;49.13;100953.25;5069615;28;20046;-87
2022/12/18 08:09:12;;;;;;;8.73;4.03;;;;;;;0.36;49.61;100949.75;5069421;28;20086;-87
2022/12/18 08:11:37;;;;;;;7.68;3.88;;;;;;;0.34;48.96;100949.91;5068504;28;20476;-86
2022/12/18 08:14:02;;;;;;;10.43;4.30;;;;;;;0.29;49.50;100946.88;5069172;28;20040;-86
2022/12/18 08:16:28;;;;;;;5.57;3.13;;;;;;;0.41;49.41;100957.25;5069588;28;20047;-87
2022/12/18 08:18:54;;;;;;;7.50;2.83;;;;;;;0.32;49.44;100945.72;5069309;28;20047;-85
2022/12/18 08:21:22;;;;;;;4.50;3.17;;;;;;;0.43;49.53;100936.47;5069796;28;20101;-85
2022/12/18 08:23:49;;;;;;;6.32;2.65;;;;;;;0.48;49.38;100944.03;5068686;28;20032;-87
2022/12/18 08:26:14;;;;;;;7.05;2.97;;;;;;;0.58;49.15;100931.28;5068626;28;20048;-87
2022/12/18 08:28:40;;;;;;;8.18;3.25;;;;;;;0.47;49.02;100927.06;5069191;28;20049;-87
2022/12/18 08:31:06;;;;;;;6.03;3.30;;;;;;;0.45;48.71;100924.56;5069626;28;20428;-85
2022/12/18 08:33:32;;;;;;;4.47;1.98;;;;;;;0.28;48.93;100915.69;5073426;28;20071;-85
2022/12/18 08:36:01;;;;;;;5.57;2.35;;;;;;;0.41;48.16;100917.00;5073678;28;20032;-85
2022/12/18 08:38:27;;;;;;;6.47;2.72;;;;;;;0.43;48.39;100904.25;5072161;28;20047;-86
2022/12/18 08:41:03;;;;;;;4.88;2.17;;;;;;;0.44;47.90;100905.97;5071768;28;20095;-86
2022/12/18 08:46:12;;;;;;;5.55;2.38;;;;;;;0.56;48.40;100896.56;5072122;28;20071;-86
2022/12/18 08:48:38;;;;;;;4.47;2.03;;;;;;;0.50;47.56;100894.53;5072347;28;20049;-85
2022/12/18 08:51:03;;;;;;;5.93;2.53;;;;;;;0.61;47.63;100895.22;5072182;28;20056;-85
2022/12/18 08:53:28;;;;;;;6.28;2.72;;;;;;;0.58;48.09;100888.31;5072427;28;20587;-85
2022/12/18 08:55:56;;;;;;;7.57;2.70;;;;;;;0.58;47.53;100894.53;5071880;28;20040;-85
2022/12/18 08:58:21;;;;;;;5.70;1.92;;;;;;;0.58;47.52;100889.16;5072211;28;20777;-87
2022/12/18 09:00:46;;;;;;;6.10;3.13;;;;;;;0.70;48.25;100894.16;5072875;28;20036;-90
2022/12/18 09:03:16;;;;;;;9.93;2.53;;;;;;;0.71;48.56;100892.31;5073116;28;20048;-86
2022/12/18 09:05:42;;;;;;;5.95;2.90;;;;;;;0.76;48.18;100876.53;5072688;28;20483;-85
2022/12/18 09:08:07;;;;;;;4.93;2.80;;;;;;;0.71;47.74;100887.81;5072664;28;20040;-86
2022/12/18 09:10:33;;;;;;;7.38;2.20;;;;;;;0.81;48.43;100879.56;5071735;28;20042;-84
2022/12/18 09:12:58;;;;;;;7.10;2.28;;;;;;;0.82;48.19;100881.22;5072983;28;20044;-89
2022/12/18 09:15:23;;;;;;;6.15;2.70;;;;;;;0.86;48.39;100887.06;5072731;28;20154;-87
2022/12/18 09:17:49;;;;;;;6.43;2.65;;;;;;;0.89;48.10;100889.44;5071686;28;20054;-89
2022/12/18 09:20:15;;;;;;;8.38;3.70;;;;;;;0.98;47.98;100874.94;5071254;28;20029;-88
2022/12/18 09:22:40;;;;;;;6.07;2.45;;;;;;;0.92;47.77;100868.44;5070151;28;20484;-88
2022/12/18 09:25:07;;;;;;;5.60;2.97;;;;;;;0.89;47.87;100867.94;5070486;28;20460;-82
2022/12/18 09:27:33;;;;;;;5.55;2.30;;;;;;;0.93;48.57;100866.59;5072532;28;20082;-89
2022/12/18 09:29:58;;;;;;;7.40;3.22;;;;;;;1.08;48.10;100864.00;5071992;28;20408;-90
2022/12/18 09:32:23;;;;;;;8.68;3.17;;;;;;;1.09;47.21;100875.59;5070141;28;20049;-87
2022/12/18 09:34:49;;;;;;;9.17;2.90;;;;;;;1.11;46.77;100878.94;5069858;28;20037;-87
2022/12/18 09:37:14;;;;;;;6.22;3.70;;;;;;;1.16;46.75;100863.13;5071020;28;20753;-90
2022/12/18 09:39:39;;;;;;;5.13;2.08;;;;;;;1.20;47.31;100864.44;5073302;28;20308;-88
2022/12/18 09:42:06;;;;;;;9.07;4.03;;;;;;;1.27;46.87;100862.75;5070373;28;20040;-86
2022/12/18 09:44:46;;;;;;;4.78;1.98;;;;;;;1.39;46.83;100859.66;5069084;28;20264;-87
2022/12/18 09:47:18;;;;;;;4.82;2.65;;;;;;;1.49;46.98;100852.19;5069488;28;20040;-87
2022/12/18 09:49:46;;;;;;;5.00;2.60;;;;;;;1.51;47.23;100852.88;5071935;28;20279;-87
2022/12/18 09:52:21;;;;;;;4.63;1.85;;;;;;;1.61;46.55;100851.78;5071077;28;20158;-87
2022/12/18 09:54:53;;;;;;;6.60;2.55;;;;;;;1.59;47.61;100861.88;5068894;28;20032;-85
2022/12/18 09:57:22;;;;;;;7.10;2.83;;;;;;;1.71;46.90;100873.91;5069118;28;20055;-86
2022/12/18 09:59:54;;;;;;;4.30;2.28;;;;;;;1.65;44.98;100877.31;5070713;28;20032;-85
2022/12/18 10:02:23;;;;;;;4.88;1.92;;;;;;;1.67;45.77;100874.47;5070816;28;20028;-86
2022/12/18 10:05:14;;;;;;;7.05;2.70;;;;;;;1.66;45.77;100876.31;5085410;28;20036;-86
2022/12/18 10:08:21;;;;;;;4.72;2.05;;;;;;;1.60;45.26;100867.09;5058943;28;20474;-88
2022/12/18 10:11:06;;;;;;;5.10;2.05;;;;;;;1.63;45.01;100871.25;5009946;28;20042;-87
2022/12/18 10:13:46;;;;;;;4.88;1.65;;;;;;;1.89;45.68;100861.19;5027909;28;20040;-87
2022/12/18 10:16:22;;;;;;;5.63;2.25;;;;;;;1.91;45.59;100851.09;5071061;28;20044;-86
2022/12/18 10:19:14;;;;;;;7.00;2.17;;;;;;;1.85;45.86;100842.69;5070578;28;20131;-84
2022/12/18 10:21:51;;;;;;;6.15;2.78;;;;;;;1.86;45.66;100824.72;5069923;28;20040;-83
2022/12/18 10:24:42;;;;;;;5.05;2.75;;;;;;;1.85;45.01;100813.13;5068927;28;20032;-82
2022/12/18 10:27:21;;;;;;;7.00;2.42;;;;;;;2.00;45.26;100808.78;5069627;28;20028;-86
2022/12/18 10:29:46;;;;;;;6.72;2.58;;;;;;;1.94;45.70;100811.22;5068844;28;20033;-83
2022/12/18 10:32:24;;;;;;;8.07;2.53;;;;;;;2.01;44.81;100818.56;5068386;28;20055;-84
2022/12/18 10:34:53;;;;;;;6.18;2.05;;;;;;;2.03;44.84;100817.38;5068644;28;20421;-85
2022/12/18 10:37:22;;;;;;;5.47;2.20;;;;;;;2.18;44.98;100809.31;5067524;28;20369;-76
2022/12/18 10:40:14;;;;;;;7.43;2.40;;;;;;;2.27;45.16;100803.84;5066528;28;20060;-87
2022/12/18 10:42:41;;;;;;;4.95;2.30;;;;;;;2.24;45.21;100806.91;5070315;28;20040;-87
2022/12/18 10:45:15;;;;;;;7.00;2.30;;;;;;;2.35;45.68;100797.53;5070314;28;20047;-83
2022/12/18 10:47:49;;;;;;;6.38;2.13;;;;;;;2.14;44.35;100793.69;5070503;28;20081;-83
2022/12/18 10:50:24;;;;;;;6.35;3.35;;;;;;;2.37;44.84;100800.88;5070028;28;20162;-86
2022/12/18 10:52:55;;;;;;;6.47;2.97;;;;;;;2.23;44.54;100795.31;5069929;28;20594;-90
2022/12/18 10:55:21;;;;;;;6.93;3.20;;;;;;;2.43;45.71;100801.00;5069954;28;20420;-82
2022/12/18 10:57:46;;;;;;;5.38;2.65;;;;;;;2.41;46.35;100800.34;5069707;28;20032;-82
2022/12/18 11:00:28;;;;;;;6.05;2.53;;;;;;;2.44;44.17;100797.25;5070241;28;20036;-84
2022/12/18 11:02:55;;;;;;;7.60;3.42;;;;;;;2.41;44.15;100800.34;5070283;28;20036;-91
2022/12/18 11:05:33;;;;;;;9.48;3.58;;;;;;;2.55;45.88;100795.97;5068542;28;20032;-90
2022/12/18 11:08:00;;;;;;;3.50;2.42;;;;;;;2.42;47.82;100790.41;5070195;28;20025;-89
2022/12/18 11:10:30;;;;;;;5.97;2.45;;;;;;;2.42;48.09;100793.91;5069253;28;20393;-88
2022/12/18 11:12:55;;;;;;;8.52;2.50;;;;;;;2.56;45.35;100789.56;5070812;28;20116;-88
2022/12/18 11:15:29;;;;;;;7.75;3.45;;;;;;;2.55;46.83;100792.44;5070269;28;20139;-87
2022/12/18 11:17:54;;;;;;;9.45;2.80;;;;;;;2.62;47.28;100779.06;5070367;28;20443;-87
2022/12/18 11:20:32;;;;;;;7.50;2.70;;;;;;;2.70;45.76;100773.59;5069920;28;20069;-86
2022/12/18 11:23:03;;;;;;;5.90;2.65;;;;;;;2.60;44.21;100778.44;5070890;28;20384;-84
2022/12/18 11:25:30;;;;;;;8.30;3.08;;;;;;;2.64;45.80;100777.03;5068827;28;20485;-85
2022/12/18 11:28:25;;;;;;;5.43;2.33;;;;;;;2.71;46.06;100790.56;5069630;28;20567;-83
2022/12/18 11:31:11;;;;;;;6.22;4.00;;;;;;;2.71;46.70;100774.41;5068945;28;20033;-95
2022/12/18 11:33:39;;;;;;;10.25;4.40;;;;;;;2.54;47.84;100769.25;5068814;28;20055;-84
2022/12/18 11:36:10;;;;;;;4.90;2.78;;;;;;;2.53;47.66;100765.72;5069120;28;20111;-86
2022/12/18 11:38:39;;;;;;;8.80;3.90;;;;;;;2.68;47.25;100757.59;5068710;28;20024;-81
2022/12/18 11:44:42;;;;;;;7.73;3.73;;;;;;;2.66;48.16;100751.59;5026562;28;20119;-82